sensor_id;sensor_type;location;lat;lon;timestamp;temperature;humidity
66506;HTU21D;53332;51.082;5.832;2023-03-01T00:00:39;2.19;85.89
66506;HTU21D;53332;51.082;5.832;2023-03-01T00:03:05;2.20;85.54
66506;HTU21D;53332;51.082;5.832;2023-03-01T00:05:31;2.24;85.15
66506;HTU21D;53332;51.082;5.832;2023-03-01T00:07:57;2.26;84.52
66506;HTU21D;53332;51.082;5.832;2023-03-01T00:10:23;2.25;84.51
66506;HTU21D;53332;51.082;5.832;2023-03-01T00:12:49;2.23;84.57
66506;HTU21D;53332;51.082;5.832;2023-03-01T00:15:14;2.19;84.81
66506;HTU21D;53332;51.082;5.832;2023-03-01T00:17:40;2.15;85.00
66506;HTU21D;53332;51.082;5.832;2023-03-01T00:20:06;2.13;84.88
66506;HTU21D;53332;51.082;5.832;2023-03-01T00:22:36;2.13;84.66
66506;HTU21D;53332;51.082;5.832;2023-03-01T00:25:02;2.09;84.95
66506;HTU21D;53332;51.082;5.832;2023-03-01T00:27:27;2.03;85.70
66506;HTU21D;53332;51.082;5.832;2023-03-01T00:29:53;1.99;86.34
66506;HTU21D;53332;51.082;5.832;2023-03-01T00:32:18;1.99;86.81
66506;HTU21D;53332;51.082;5.832;2023-03-01T00:34:44;1.99;86.80
66506;HTU21D;53332;51.082;5.832;2023-03-01T00:37:24;2.00;86.85
66506;HTU21D;53332;51.082;5.832;2023-03-01T00:39:50;1.99;86.93
66506;HTU21D;53332;51.082;5.832;2023-03-01T00:42:16;1.96;87.20
66506;HTU21D;53332;51.082;5.832;2023-03-01T00:44:42;1.91;87.70
66506;HTU21D;53332;51.082;5.832;2023-03-01T00:47:07;1.83;88.68
66506;HTU21D;53332;51.082;5.832;2023-03-01T00:49:33;1.81;89.33
66506;HTU21D;53332;51.082;5.832;2023-03-01T00:51:58;1.79;89.69
66506;HTU21D;53332;51.082;5.832;2023-03-01T00:54:24;1.73;90.42
66506;HTU21D;53332;51.082;5.832;2023-03-01T00:56:49;1.72;90.87
66506;HTU21D;53332;51.082;5.832;2023-03-01T00:59:15;1.72;91.20
66506;HTU21D;53332;51.082;5.832;2023-03-01T01:01:40;1.76;91.14
66506;HTU21D;53332;51.082;5.832;2023-03-01T01:04:12;1.78;90.77
66506;HTU21D;53332;51.082;5.832;2023-03-01T01:06:42;1.80;90.29
66506;HTU21D;53332;51.082;5.832;2023-03-01T01:09:10;1.78;90.06
66506;HTU21D;53332;51.082;5.832;2023-03-01T01:11:46;1.80;89.93
66506;HTU21D;53332;51.082;5.832;2023-03-01T01:14:13;1.83;89.62
66506;HTU21D;53332;51.082;5.832;2023-03-01T01:16:39;1.82;89.76
66506;HTU21D;53332;51.082;5.832;2023-03-01T01:19:05;1.80;89.76
66506;HTU21D;53332;51.082;5.832;2023-03-01T01:21:31;1.75;90.01
66506;HTU21D;53332;51.082;5.832;2023-03-01T01:23:57;1.78;89.78
66506;HTU21D;53332;51.082;5.832;2023-03-01T01:26:26;1.79;89.43
66506;HTU21D;53332;51.082;5.832;2023-03-01T01:28:52;1.78;88.94
66506;HTU21D;53332;51.082;5.832;2023-03-01T01:31:18;1.75;88.83
66506;HTU21D;53332;51.082;5.832;2023-03-01T01:33:45;1.69;88.92
66506;HTU21D;53332;51.082;5.832;2023-03-01T01:36:11;1.66;89.32
66506;HTU21D;53332;51.082;5.832;2023-03-01T01:38:37;1.60;89.88
66506;HTU21D;53332;51.082;5.832;2023-03-01T01:41:04;1.56;90.28
66506;HTU21D;53332;51.082;5.832;2023-03-01T01:43:38;1.60;89.92
66506;HTU21D;53332;51.082;5.832;2023-03-01T01:48:55;1.55;89.30
66506;HTU21D;53332;51.082;5.832;2023-03-01T01:51:36;1.56;88.89
66506;HTU21D;53332;51.082;5.832;2023-03-01T01:54:10;1.57;88.75
66506;HTU21D;53332;51.082;5.832;2023-03-01T01:56:42;1.55;88.50
66506;HTU21D;53332;51.082;5.832;2023-03-01T01:59:09;1.51;88.86
66506;HTU21D;53332;51.082;5.832;2023-03-01T02:01:36;1.45;89.22
66506;HTU21D;53332;51.082;5.832;2023-03-01T02:04:01;1.40;89.80
66506;HTU21D;53332;51.082;5.832;2023-03-01T02:06:37;1.47;89.38
66506;HTU21D;53332;51.082;5.832;2023-03-01T02:09:13;1.47;88.88
66506;HTU21D;53332;51.082;5.832;2023-03-01T02:11:42;1.45;88.56
66506;HTU21D;53332;51.082;5.832;2023-03-01T02:14:08;1.47;88.25
66506;HTU21D;53332;51.082;5.832;2023-03-01T02:16:35;1.48;87.67
66506;HTU21D;53332;51.082;5.832;2023-03-01T02:19:03;1.51;87.41
66506;HTU21D;53332;51.082;5.832;2023-03-01T02:24:39;1.47;86.81
66506;HTU21D;53332;51.082;5.832;2023-03-01T02:27:06;1.46;87.04
66506;HTU21D;53332;51.082;5.832;2023-03-01T02:29:31;1.42;87.16
66506;HTU21D;53332;51.082;5.832;2023-03-01T02:32:02;1.38;87.38
66506;HTU21D;53332;51.082;5.832;2023-03-01T02:34:31;1.34;87.81
66506;HTU21D;53332;51.082;5.832;2023-03-01T02:37:07;1.37;87.48
66506;HTU21D;53332;51.082;5.832;2023-03-01T02:39:42;1.31;87.96
66506;HTU21D;53332;51.082;5.832;2023-03-01T02:42:13;1.25;88.46
66506;HTU21D;53332;51.082;5.832;2023-03-01T02:44:40;1.22;89.36
66506;HTU21D;53332;51.082;5.832;2023-03-01T02:47:05;1.17;89.86
66506;HTU21D;53332;51.082;5.832;2023-03-01T02:49:34;1.08;90.85
66506;HTU21D;53332;51.082;5.832;2023-03-01T02:52:34;1.04;91.12
66506;HTU21D;53332;51.082;5.832;2023-03-01T02:55:14;1.01;91.48
66506;HTU21D;53332;51.082;5.832;2023-03-01T02:57:44;0.93;92.09
66506;HTU21D;53332;51.082;5.832;2023-03-01T03:00:17;0.86;92.79
66506;HTU21D;53332;51.082;5.832;2023-03-01T03:02:51;0.80;93.60
66506;HTU21D;53332;51.082;5.832;2023-03-01T03:05:23;0.80;93.88
66506;HTU21D;53332;51.082;5.832;2023-03-01T03:07:49;0.81;94.03
66506;HTU21D;53332;51.082;5.832;2023-03-01T03:10:22;0.83;94.27
66506;HTU21D;53332;51.082;5.832;2023-03-01T03:12:51;0.81;94.61
66506;HTU21D;53332;51.082;5.832;2023-03-01T03:15:17;0.81;94.98
66506;HTU21D;53332;51.082;5.832;2023-03-01T03:17:43;0.86;94.65
66506;HTU21D;53332;51.082;5.832;2023-03-01T03:20:12;0.83;94.75
66506;HTU21D;53332;51.082;5.832;2023-03-01T03:22:39;0.82;94.36
66506;HTU21D;53332;51.082;5.832;2023-03-01T03:25:06;0.80;93.31
66506;HTU21D;53332;51.082;5.832;2023-03-01T03:27:36;0.77;93.05
66506;HTU21D;53332;51.082;5.832;2023-03-01T03:30:04;0.75;92.87
66506;HTU21D;53332;51.082;5.832;2023-03-01T03:32:41;0.72;93.01
66506;HTU21D;53332;51.082;5.832;2023-03-01T03:35:08;0.71;93.01
66506;HTU21D;53332;51.082;5.832;2023-03-01T03:37:39;0.67;92.87
66506;HTU21D;53332;51.082;5.832;2023-03-01T03:40:24;0.62;93.04
66506;HTU21D;53332;51.082;5.832;2023-03-01T03:42:49;0.58;93.23
66506;HTU21D;53332;51.082;5.832;2023-03-01T03:45:16;0.57;93.57
66506;HTU21D;53332;51.082;5.832;2023-03-01T03:47:42;0.59;93.62
66506;HTU21D;53332;51.082;5.832;2023-03-01T03:50:10;0.61;93.88
66506;HTU21D;53332;51.082;5.832;2023-03-01T03:52:36;0.62;94.24
66506;HTU21D;53332;51.082;5.832;2023-03-01T03:55:02;0.62;94.59
66506;HTU21D;53332;51.082;5.832;2023-03-01T03:57:27;0.64;95.15
66506;HTU21D;53332;51.082;5.832;2023-03-01T03:59:53;0.66;95.31
66506;HTU21D;53332;51.082;5.832;2023-03-01T04:02:19;0.65;95.49
66506;HTU21D;53332;51.082;5.832;2023-03-01T04:04:50;0.64;95.58
66506;HTU21D;53332;51.082;5.832;2023-03-01T04:07:16;0.64;95.91
66506;HTU21D;53332;51.082;5.832;2023-03-01T04:09:43;0.62;96.03
66506;HTU21D;53332;51.082;5.832;2023-03-01T04:12:09;0.61;96.13
66506;HTU21D;53332;51.082;5.832;2023-03-01T04:14:35;0.60;96.29
66506;HTU21D;53332;51.082;5.832;2023-03-01T04:17:01;0.61;95.74
66506;HTU21D;53332;51.082;5.832;2023-03-01T04:19:26;0.59;95.73
66506;HTU21D;53332;51.082;5.832;2023-03-01T04:21:53;0.59;96.10
66506;HTU21D;53332;51.082;5.832;2023-03-01T04:24:19;0.58;96.48
66506;HTU21D;53332;51.082;5.832;2023-03-01T04:26:44;0.60;96.42
66506;HTU21D;53332;51.082;5.832;2023-03-01T04:29:10;0.59;96.24
66506;HTU21D;53332;51.082;5.832;2023-03-01T04:31:35;0.55;96.23
66506;HTU21D;53332;51.082;5.832;2023-03-01T04:34:01;0.57;96.10
66506;HTU21D;53332;51.082;5.832;2023-03-01T04:36:28;0.57;95.99
66506;HTU21D;53332;51.082;5.832;2023-03-01T04:38:55;0.59;95.93
66506;HTU21D;53332;51.082;5.832;2023-03-01T04:41:23;0.61;95.57
66506;HTU21D;53332;51.082;5.832;2023-03-01T04:43:50;0.59;95.36
66506;HTU21D;53332;51.082;5.832;2023-03-01T04:46:17;0.54;95.83
66506;HTU21D;53332;51.082;5.832;2023-03-01T04:48:45;0.50;96.32
66506;HTU21D;53332;51.082;5.832;2023-03-01T04:51:12;0.50;96.42
66506;HTU21D;53332;51.082;5.832;2023-03-01T04:53:42;0.49;96.37
66506;HTU21D;53332;51.082;5.832;2023-03-01T04:56:08;0.45;96.48
66506;HTU21D;53332;51.082;5.832;2023-03-01T04:58:34;0.44;96.39
66506;HTU21D;53332;51.082;5.832;2023-03-01T05:00:59;0.43;96.62
66506;HTU21D;53332;51.082;5.832;2023-03-01T05:03:25;0.43;97.00
66506;HTU21D;53332;51.082;5.832;2023-03-01T05:05:52;0.40;97.04
66506;HTU21D;53332;51.082;5.832;2023-03-01T05:08:18;0.37;97.32
66506;HTU21D;53332;51.082;5.832;2023-03-01T05:10:50;0.32;97.84
66506;HTU21D;53332;51.082;5.832;2023-03-01T05:13:16;0.31;98.27
66506;HTU21D;53332;51.082;5.832;2023-03-01T05:15:55;0.32;98.50
66506;HTU21D;53332;51.082;5.832;2023-03-01T05:18:21;0.32;98.21
66506;HTU21D;53332;51.082;5.832;2023-03-01T05:20:51;0.31;98.32
66506;HTU21D;53332;51.082;5.832;2023-03-01T05:23:17;0.33;98.26
66506;HTU21D;53332;51.082;5.832;2023-03-01T05:25:44;0.34;98.23
66506;HTU21D;53332;51.082;5.832;2023-03-01T05:28:11;0.35;98.26
66506;HTU21D;53332;51.082;5.832;2023-03-01T05:30:37;0.35;98.20
66506;HTU21D;53332;51.082;5.832;2023-03-01T05:33:05;0.34;97.94
66506;HTU21D;53332;51.082;5.832;2023-03-01T05:35:35;0.31;97.97
66506;HTU21D;53332;51.082;5.832;2023-03-01T05:38:01;0.31;98.10
66506;HTU21D;53332;51.082;5.832;2023-03-01T05:40:26;0.28;98.13
66506;HTU21D;53332;51.082;5.832;2023-03-01T05:42:56;0.30;98.16
66506;HTU21D;53332;51.082;5.832;2023-03-01T05:45:24;0.28;98.20
66506;HTU21D;53332;51.082;5.832;2023-03-01T05:47:50;0.27;98.19
66506;HTU21D;53332;51.082;5.832;2023-03-01T05:52:51;0.24;98.25
66506;HTU21D;53332;51.082;5.832;2023-03-01T05:55:20;0.24;98.18
66506;HTU21D;53332;51.082;5.832;2023-03-01T05:57:47;0.21;98.28
66506;HTU21D;53332;51.082;5.832;2023-03-01T06:00:14;0.17;98.78
66506;HTU21D;53332;51.082;5.832;2023-03-01T06:02:40;0.13;99.22
66506;HTU21D;53332;51.082;5.832;2023-03-01T06:05:08;0.12;99.35
66506;HTU21D;53332;51.082;5.832;2023-03-01T06:07:34;0.08;99.51
66506;HTU21D;53332;51.082;5.832;2023-03-01T06:10:00;0.04;99.88
66506;HTU21D;53332;51.082;5.832;2023-03-01T06:12:30;-0.02;100.48
66506;HTU21D;53332;51.082;5.832;2023-03-01T06:14:56;-0.07;101.10
66506;HTU21D;53332;51.082;5.832;2023-03-01T06:17:21;-0.09;101.62
66506;HTU21D;53332;51.082;5.832;2023-03-01T06:19:47;-0.12;102.02
66506;HTU21D;53332;51.082;5.832;2023-03-01T06:22:12;-0.12;102.52
66506;HTU21D;53332;51.082;5.832;2023-03-01T06:24:38;-0.12;102.41
66506;HTU21D;53332;51.082;5.832;2023-03-01T06:27:04;-0.17;102.60
66506;HTU21D;53332;51.082;5.832;2023-03-01T06:29:29;-0.22;102.73
66506;HTU21D;53332;51.082;5.832;2023-03-01T06:31:55;-0.22;103.00
66506;HTU21D;53332;51.082;5.832;2023-03-01T06:34:20;-0.22;103.00
66506;HTU21D;53332;51.082;5.832;2023-03-01T06:36:47;-0.24;103.07
66506;HTU21D;53332;51.082;5.832;2023-03-01T06:39:13;-0.28;103.22
66506;HTU21D;53332;51.082;5.832;2023-03-01T06:41:38;-0.28;103.65
66506;HTU21D;53332;51.082;5.832;2023-03-01T06:44:04;-0.29;103.95
66506;HTU21D;53332;51.082;5.832;2023-03-01T06:46:30;-0.30;104.28
66506;HTU21D;53332;51.082;5.832;2023-03-01T06:48:56;-0.31;104.28
66506;HTU21D;53332;51.082;5.832;2023-03-01T06:51:21;-0.27;104.33
66506;HTU21D;53332;51.082;5.832;2023-03-01T06:53:47;-0.25;104.21
66506;HTU21D;53332;51.082;5.832;2023-03-01T06:56:12;-0.23;104.35
66506;HTU21D;53332;51.082;5.832;2023-03-01T06:58:38;-0.16;104.58
66506;HTU21D;53332;51.082;5.832;2023-03-01T07:01:07;-0.13;104.08
66506;HTU21D;53332;51.082;5.832;2023-03-01T07:03:33;-0.11;104.00
66506;HTU21D;53332;51.082;5.832;2023-03-01T07:05:59;-0.09;103.97
66506;HTU21D;53332;51.082;5.832;2023-03-01T07:08:25;-0.05;103.93
66506;HTU21D;53332;51.082;5.832;2023-03-01T07:10:57;0.01;103.91
66506;HTU21D;53332;51.082;5.832;2023-03-01T07:13:23;0.09;103.99
66506;HTU21D;53332;51.082;5.832;2023-03-01T07:15:49;0.20;104.28
66506;HTU21D;53332;51.082;5.832;2023-03-01T07:18:14;0.34;104.31
66506;HTU21D;53332;51.082;5.832;2023-03-01T07:20:40;0.52;104.44
66506;HTU21D;53332;51.082;5.832;2023-03-01T07:23:06;0.74;103.02
66506;HTU21D;53332;51.082;5.832;2023-03-01T07:25:32;0.91;101.68
66506;HTU21D;53332;51.082;5.832;2023-03-01T07:27:58;1.07;100.71
66506;HTU21D;53332;51.082;5.832;2023-03-01T07:30:24;1.25;100.26
66506;HTU21D;53332;51.082;5.832;2023-03-01T07:32:53;1.47;99.68
66506;HTU21D;53332;51.082;5.832;2023-03-01T07:35:18;1.65;98.52
66506;HTU21D;53332;51.082;5.832;2023-03-01T07:37:44;1.83;97.82
66506;HTU21D;53332;51.082;5.832;2023-03-01T07:40:10;2.02;96.76
66506;HTU21D;53332;51.082;5.832;2023-03-01T07:42:36;2.17;95.38
66506;HTU21D;53332;51.082;5.832;2023-03-01T07:45:02;2.28;93.75
66506;HTU21D;53332;51.082;5.832;2023-03-01T07:47:27;2.39;92.39
66506;HTU21D;53332;51.082;5.832;2023-03-01T07:49:53;2.44;91.63
66506;HTU21D;53332;51.082;5.832;2023-03-01T07:52:18;2.55;90.90
66506;HTU21D;53332;51.082;5.832;2023-03-01T07:54:44;2.69;90.12
66506;HTU21D;53332;51.082;5.832;2023-03-01T07:57:10;2.87;90.60
66506;HTU21D;53332;51.082;5.832;2023-03-01T07:59:36;3.11;90.44
66506;HTU21D;53332;51.082;5.832;2023-03-01T08:02:02;3.36;89.22
66506;HTU21D;53332;51.082;5.832;2023-03-01T08:04:27;3.60;88.13
66506;HTU21D;53332;51.082;5.832;2023-03-01T08:06:54;3.76;86.26
66506;HTU21D;53332;51.082;5.832;2023-03-01T08:09:20;3.90;84.81
66506;HTU21D;53332;51.082;5.832;2023-03-01T08:11:46;4.02;83.82
66506;HTU21D;53332;51.082;5.832;2023-03-01T08:14:11;4.05;82.01
66506;HTU21D;53332;51.082;5.832;2023-03-01T08:16:37;4.06;80.89
66506;HTU21D;53332;51.082;5.832;2023-03-01T08:19:08;4.03;81.33
66506;HTU21D;53332;51.082;5.832;2023-03-01T08:21:34;4.08;81.30
66506;HTU21D;53332;51.082;5.832;2023-03-01T08:24:04;4.12;80.13
66506;HTU21D;53332;51.082;5.832;2023-03-01T08:26:30;4.13;80.00
66506;HTU21D;53332;51.082;5.832;2023-03-01T08:28:56;4.16;79.44
66506;HTU21D;53332;51.082;5.832;2023-03-01T08:31:25;4.15;78.27
66506;HTU21D;53332;51.082;5.832;2023-03-01T08:33:56;4.13;79.06
66506;HTU21D;53332;51.082;5.832;2023-03-01T08:36:24;4.21;78.79
66506;HTU21D;53332;51.082;5.832;2023-03-01T08:38:50;4.28;78.87
66506;HTU21D;53332;51.082;5.832;2023-03-01T08:41:15;4.35;79.01
66506;HTU21D;53332;51.082;5.832;2023-03-01T08:43:41;4.44;78.65
66506;HTU21D;53332;51.082;5.832;2023-03-01T08:46:07;4.48;77.53
66506;HTU21D;53332;51.082;5.832;2023-03-01T08:48:32;4.48;77.22
66506;HTU21D;53332;51.082;5.832;2023-03-01T08:51:07;4.44;77.10
66506;HTU21D;53332;51.082;5.832;2023-03-01T08:53:33;4.50;76.85
66506;HTU21D;53332;51.082;5.832;2023-03-01T08:56:02;4.57;77.33
66506;HTU21D;53332;51.082;5.832;2023-03-01T08:58:29;4.69;76.78
66506;HTU21D;53332;51.082;5.832;2023-03-01T09:00:54;4.73;76.37
66506;HTU21D;53332;51.082;5.832;2023-03-01T09:03:22;4.80;76.14
66506;HTU21D;53332;51.082;5.832;2023-03-01T09:05:47;4.84;74.41
66506;HTU21D;53332;51.082;5.832;2023-03-01T09:08:18;4.75;74.71
66506;HTU21D;53332;51.082;5.832;2023-03-01T09:10:44;4.76;73.50
66506;HTU21D;53332;51.082;5.832;2023-03-01T09:13:10;4.72;74.40
66506;HTU21D;53332;51.082;5.832;2023-03-01T09:15:39;4.89;74.34
66506;HTU21D;53332;51.082;5.832;2023-03-01T09:18:05;5.03;73.41
66506;HTU21D;53332;51.082;5.832;2023-03-01T09:20:32;5.18;73.15
66506;HTU21D;53332;51.082;5.832;2023-03-01T09:22:57;5.36;72.77
66506;HTU21D;53332;51.082;5.832;2023-03-01T09:25:23;5.50;71.35
66506;HTU21D;53332;51.082;5.832;2023-03-01T09:27:52;5.61;70.48
66506;HTU21D;53332;51.082;5.832;2023-03-01T09:30:18;5.74;70.68
66506;HTU21D;53332;51.082;5.832;2023-03-01T09:32:44;5.95;70.99
66506;HTU21D;53332;51.082;5.832;2023-03-01T09:35:11;6.19;69.84
66506;HTU21D;53332;51.082;5.832;2023-03-01T09:37:37;6.43;68.67
66506;HTU21D;53332;51.082;5.832;2023-03-01T09:40:14;6.70;67.18
66506;HTU21D;53332;51.082;5.832;2023-03-01T09:42:52;6.83;66.20
66506;HTU21D;53332;51.082;5.832;2023-03-01T09:47:51;7.05;65.05
66506;HTU21D;53332;51.082;5.832;2023-03-01T09:50:20;7.17;64.16
66506;HTU21D;53332;51.082;5.832;2023-03-01T09:52:54;7.20;62.81
66506;HTU21D;53332;51.082;5.832;2023-03-01T09:58:38;7.07;63.15
66506;HTU21D;53332;51.082;5.832;2023-03-01T10:06:32;6.93;62.43
66506;HTU21D;53332;51.082;5.832;2023-03-01T10:09:17;6.83;62.53
66506;HTU21D;53332;51.082;5.832;2023-03-01T10:11:49;6.59;61.54
66506;HTU21D;53332;51.082;5.832;2023-03-01T10:14:27;6.42;62.25
66506;HTU21D;53332;51.082;5.832;2023-03-01T10:17:01;6.39;62.92
66506;HTU21D;53332;51.082;5.832;2023-03-01T10:19:39;6.39;62.83
66506;HTU21D;53332;51.082;5.832;2023-03-01T10:22:20;6.41;62.46
66506;HTU21D;53332;51.082;5.832;2023-03-01T10:24:51;6.30;63.37
66506;HTU21D;53332;51.082;5.832;2023-03-01T10:27:23;6.27;64.35
66506;HTU21D;53332;51.082;5.832;2023-03-01T10:32:54;6.31;64.78
66506;HTU21D;53332;51.082;5.832;2023-03-01T10:35:26;6.27;63.99
66506;HTU21D;53332;51.082;5.832;2023-03-01T10:38:08;6.21;64.43
66506;HTU21D;53332;51.082;5.832;2023-03-01T10:40:36;6.13;63.94
66506;HTU21D;53332;51.082;5.832;2023-03-01T10:43:04;6.07;63.68
66506;HTU21D;53332;51.082;5.832;2023-03-01T10:45:36;5.89;64.39
66506;HTU21D;53332;51.082;5.832;2023-03-01T10:48:18;5.91;64.95
66506;HTU21D;53332;51.082;5.832;2023-03-01T10:51:04;5.90;64.90
66506;HTU21D;53332;51.082;5.832;2023-03-01T10:53:41;5.86;65.14
66506;HTU21D;53332;51.082;5.832;2023-03-01T10:56:13;5.72;64.50
66506;HTU21D;53332;51.082;5.832;2023-03-01T10:58:41;5.61;65.24
66506;HTU21D;53332;51.082;5.832;2023-03-01T11:06:36;5.80;65.00
66506;HTU21D;53332;51.082;5.832;2023-03-01T11:09:18;5.76;64.12
66506;HTU21D;53332;51.082;5.832;2023-03-01T11:11:44;5.78;64.42
66506;HTU21D;53332;51.082;5.832;2023-03-01T11:14:20;5.79;63.71
66506;HTU21D;53332;51.082;5.832;2023-03-01T11:17:21;5.82;63.18
66506;HTU21D;53332;51.082;5.832;2023-03-01T11:22:50;6.00;62.18
66506;HTU21D;53332;51.082;5.832;2023-03-01T11:25:23;6.06;62.62
66506;HTU21D;53332;51.082;5.832;2023-03-01T11:27:49;6.16;62.77
66506;HTU21D;53332;51.082;5.832;2023-03-01T11:33:18;6.28;62.32
66506;HTU21D;53332;51.082;5.832;2023-03-01T11:36:31;6.33;61.64
66506;HTU21D;53332;51.082;5.832;2023-03-01T11:39:04;6.41;62.77
66506;HTU21D;53332;51.082;5.832;2023-03-01T11:41:34;6.48;61.76
66506;HTU21D;53332;51.082;5.832;2023-03-01T11:44:25;6.51;61.12
66506;HTU21D;53332;51.082;5.832;2023-03-01T11:47:24;6.45;60.21
66506;HTU21D;53332;51.082;5.832;2023-03-01T11:53:48;6.61;60.64
66506;HTU21D;53332;51.082;5.832;2023-03-01T12:25:58;6.97;57.19
66506;HTU21D;53332;51.082;5.832;2023-03-01T12:31:33;7.00;58.34
66506;HTU21D;53332;51.082;5.832;2023-03-01T12:42:13;7.26;57.51
66506;HTU21D;53332;51.082;5.832;2023-03-01T12:52:52;7.42;56.56
66506;HTU21D;53332;51.082;5.832;2023-03-01T12:55:36;7.42;56.64
66506;HTU21D;53332;51.082;5.832;2023-03-01T13:03:53;7.42;55.88
66506;HTU21D;53332;51.082;5.832;2023-03-01T13:09:16;7.54;55.79
66506;HTU21D;53332;51.082;5.832;2023-03-01T13:11:44;7.59;55.32
66506;HTU21D;53332;51.082;5.832;2023-03-01T13:16:53;7.57;56.81
66506;HTU21D;53332;51.082;5.832;2023-03-01T13:19:21;7.53;57.58
66506;HTU21D;53332;51.082;5.832;2023-03-01T13:21:49;7.48;57.76
66506;HTU21D;53332;51.082;5.832;2023-03-01T13:32:25;7.45;57.40
66506;HTU21D;53332;51.082;5.832;2023-03-01T13:34:58;7.42;57.22
66506;HTU21D;53332;51.082;5.832;2023-03-01T13:37:30;7.43;57.21
66506;HTU21D;53332;51.082;5.832;2023-03-01T13:39:58;7.44;56.93
66506;HTU21D;53332;51.082;5.832;2023-03-01T13:42:35;7.46;56.67
66506;HTU21D;53332;51.082;5.832;2023-03-01T13:45:04;7.47;56.76
66506;HTU21D;53332;51.082;5.832;2023-03-01T13:47:34;7.49;55.57
66506;HTU21D;53332;51.082;5.832;2023-03-01T13:50:04;7.54;56.27
66506;HTU21D;53332;51.082;5.832;2023-03-01T13:55:05;7.54;54.97
66506;HTU21D;53332;51.082;5.832;2023-03-01T13:57:38;7.56;53.87
66506;HTU21D;53332;51.082;5.832;2023-03-01T14:00:07;7.54;52.88
66506;HTU21D;53332;51.082;5.832;2023-03-01T14:03:08;7.57;53.25
66506;HTU21D;53332;51.082;5.832;2023-03-01T14:05:35;7.60;52.24
66506;HTU21D;53332;51.082;5.832;2023-03-01T14:08:03;7.69;53.44
66506;HTU21D;53332;51.082;5.832;2023-03-01T14:10:59;7.78;53.88
66506;HTU21D;53332;51.082;5.832;2023-03-01T14:19:19;7.88;53.09
66506;HTU21D;53332;51.082;5.832;2023-03-01T14:21:59;7.92;52.73
66506;HTU21D;53332;51.082;5.832;2023-03-01T14:24:31;7.99;52.36
66506;HTU21D;53332;51.082;5.832;2023-03-01T14:27:01;8.00;53.07
66506;HTU21D;53332;51.082;5.832;2023-03-01T14:29:34;8.01;53.29
66506;HTU21D;53332;51.082;5.832;2023-03-01T14:32:21;7.93;52.30
66506;HTU21D;53332;51.082;5.832;2023-03-01T14:34:50;7.84;53.01
66506;HTU21D;53332;51.082;5.832;2023-03-01T14:37:28;7.82;53.23
66506;HTU21D;53332;51.082;5.832;2023-03-01T14:39:56;7.83;52.76
66506;HTU21D;53332;51.082;5.832;2023-03-01T14:42:25;7.83;51.46
66506;HTU21D;53332;51.082;5.832;2023-03-01T14:44:55;7.84;52.39
66506;HTU21D;53332;51.082;5.832;2023-03-01T14:47:28;7.84;51.56
66506;HTU21D;53332;51.082;5.832;2023-03-01T14:50:30;7.84;52.33
66506;HTU21D;53332;51.082;5.832;2023-03-01T14:52:54;7.88;52.26
66506;HTU21D;53332;51.082;5.832;2023-03-01T14:55:41;7.94;51.76
66506;HTU21D;53332;51.082;5.832;2023-03-01T14:58:19;7.94;52.24
66506;HTU21D;53332;51.082;5.832;2023-03-01T15:00:58;7.96;51.86
66506;HTU21D;53332;51.082;5.832;2023-03-01T15:03:35;7.93;52.06
66506;HTU21D;53332;51.082;5.832;2023-03-01T15:06:06;7.89;52.14
66506;HTU21D;53332;51.082;5.832;2023-03-01T15:08:33;7.85;51.58
66506;HTU21D;53332;51.082;5.832;2023-03-01T15:11:15;7.82;52.67
66506;HTU21D;53332;51.082;5.832;2023-03-01T15:13:42;7.87;53.64
66506;HTU21D;53332;51.082;5.832;2023-03-01T15:16:16;7.92;52.23
66506;HTU21D;53332;51.082;5.832;2023-03-01T15:18:49;7.85;52.69
66506;HTU21D;53332;51.082;5.832;2023-03-01T15:21:29;7.84;51.67
66506;HTU21D;53332;51.082;5.832;2023-03-01T15:26:53;7.84;52.30
66506;HTU21D;53332;51.082;5.832;2023-03-01T15:29:28;7.87;51.51
66506;HTU21D;53332;51.082;5.832;2023-03-01T15:32:03;7.84;51.58
66506;HTU21D;53332;51.082;5.832;2023-03-01T15:34:30;7.84;52.20
66506;HTU21D;53332;51.082;5.832;2023-03-01T15:36:57;7.86;52.18
66506;HTU21D;53332;51.082;5.832;2023-03-01T15:39:42;7.86;52.82
66506;HTU21D;53332;51.082;5.832;2023-03-01T15:47:40;7.87;52.82
66506;HTU21D;53332;51.082;5.832;2023-03-01T15:50:23;7.85;53.10
66506;HTU21D;53332;51.082;5.832;2023-03-01T15:52:50;7.82;52.85
66506;HTU21D;53332;51.082;5.832;2023-03-01T15:55:25;7.81;53.17
66506;HTU21D;53332;51.082;5.832;2023-03-01T16:00:44;7.77;54.88
66506;HTU21D;53332;51.082;5.832;2023-03-01T16:03:11;7.81;54.65
66506;HTU21D;53332;51.082;5.832;2023-03-01T16:05:38;7.78;54.46
66506;HTU21D;53332;51.082;5.832;2023-03-01T16:08:05;7.77;53.94
66506;HTU21D;53332;51.082;5.832;2023-03-01T16:10:32;7.75;54.61
66506;HTU21D;53332;51.082;5.832;2023-03-01T16:12:59;7.75;54.35
66506;HTU21D;53332;51.082;5.832;2023-03-01T16:15:33;7.72;53.62
66506;HTU21D;53332;51.082;5.832;2023-03-01T16:18:03;7.64;54.37
66506;HTU21D;53332;51.082;5.832;2023-03-01T16:20:30;7.62;54.85
66506;HTU21D;53332;51.082;5.832;2023-03-01T16:23:03;7.65;54.62
66506;HTU21D;53332;51.082;5.832;2023-03-01T16:25:30;7.60;54.40
66506;HTU21D;53332;51.082;5.832;2023-03-01T16:27:57;7.55;54.17
66506;HTU21D;53332;51.082;5.832;2023-03-01T16:30:26;7.53;54.11
66506;HTU21D;53332;51.082;5.832;2023-03-01T16:32:51;7.49;54.26
66506;HTU21D;53332;51.082;5.832;2023-03-01T16:35:19;7.47;54.26
66506;HTU21D;53332;51.082;5.832;2023-03-01T16:37:47;7.44;54.51
66506;HTU21D;53332;51.082;5.832;2023-03-01T16:42:50;7.34;55.00
66506;HTU21D;53332;51.082;5.832;2023-03-01T16:45:17;7.30;54.71
66506;HTU21D;53332;51.082;5.832;2023-03-01T16:47:42;7.27;55.04
66506;HTU21D;53332;51.082;5.832;2023-03-01T16:50:09;7.23;55.36
66506;HTU21D;53332;51.082;5.832;2023-03-01T16:52:34;7.16;55.66
66506;HTU21D;53332;51.082;5.832;2023-03-01T16:55:01;7.11;55.64
66506;HTU21D;53332;51.082;5.832;2023-03-01T16:57:27;7.07;55.78
66506;HTU21D;53332;51.082;5.832;2023-03-01T16:59:52;7.00;55.39
66506;HTU21D;53332;51.082;5.832;2023-03-01T17:02:20;6.96;55.61
66506;HTU21D;53332;51.082;5.832;2023-03-01T17:04:54;6.89;55.26
66506;HTU21D;53332;51.082;5.832;2023-03-01T17:07:20;6.87;55.18
66506;HTU21D;53332;51.082;5.832;2023-03-01T17:09:45;6.82;55.58
66506;HTU21D;53332;51.082;5.832;2023-03-01T17:12:15;6.79;55.68
66506;HTU21D;53332;51.082;5.832;2023-03-01T17:14:41;6.74;55.76
66506;HTU21D;53332;51.082;5.832;2023-03-01T17:17:08;6.69;56.15
66506;HTU21D;53332;51.082;5.832;2023-03-01T17:19:34;6.66;56.52
66506;HTU21D;53332;51.082;5.832;2023-03-01T17:22:02;6.60;57.05
66506;HTU21D;53332;51.082;5.832;2023-03-01T17:24:28;6.56;57.21
66506;HTU21D;53332;51.082;5.832;2023-03-01T17:26:54;6.49;57.65
66506;HTU21D;53332;51.082;5.832;2023-03-01T17:29:20;6.42;58.02
66506;HTU21D;53332;51.082;5.832;2023-03-01T17:31:45;6.37;57.58
66506;HTU21D;53332;51.082;5.832;2023-03-01T17:34:11;6.33;58.14
66506;HTU21D;53332;51.082;5.832;2023-03-01T17:36:36;6.27;58.44
66506;HTU21D;53332;51.082;5.832;2023-03-01T17:39:09;6.23;58.54
66506;HTU21D;53332;51.082;5.832;2023-03-01T17:41:34;6.17;59.04
66506;HTU21D;53332;51.082;5.832;2023-03-01T17:44:00;6.10;59.50
66506;HTU21D;53332;51.082;5.832;2023-03-01T17:46:25;6.08;59.51
66506;HTU21D;53332;51.082;5.832;2023-03-01T17:48:51;6.05;59.41